Time;durP1;ratioP1;P1;durP2;ratioP2;P2;SDS_P1;SDS_P2;PMS_P1;PMS_P2;Temp;Humidity;BMP_temperature;BMP_pressure;BME280_temperature;BME280_humidity;BME280_pressure;Samples;Min_cycle;Max_cycle;Signal;HPM_P1;HPM_P2
2024/03/16 00:02:14;;;;;;;1.58;0.63;;;;;;;;;;7411101;19;19914;-78
2024/03/16 00:05:01;;;;;;;1.85;0.50;;;;;;;;;;7412233;19;19922;-78
2024/03/16 00:07:50;;;;;;;0.40;0.25;;;;;;;;;;7408382;19;19921;-79
2024/03/16 00:10:36;;;;;;;0.77;0.30;;;;;;;;;;7412520;19;19918;-78
2024/03/16 00:13:23;;;;;;;1.25;0.50;;;;;;;;;;7410019;19;20605;-78
2024/03/16 00:16:08;;;;;;;1.20;0.30;;;;;;;;;;7407484;19;20327;-78
2024/03/16 00:18:53;;;;;;;0.38;0.20;;;;;;;;;;7410240;19;20601;-79
2024/03/16 00:21:40;;;;;;;1.77;0.50;;;;;;;;;;7409476;19;19923;-78
2024/03/16 00:24:28;;;;;;;0.70;0.38;;;;;;;;;;7410013;19;19922;-78
2024/03/16 00:27:14;;;;;;;0.73;0.40;;;;;;;;;;7411019;19;19911;-78
2024/03/16 00:30:04;;;;;;;0.95;0.20;;;;;;;;;;7409861;19;19918;-78
2024/03/16 00:32:54;;;;;;;0.43;0.30;;;;;;;;;;7411771;19;19986;-78
2024/03/16 00:35:38;;;;;;;0.45;0.30;;;;;;;;;;7407885;19;20327;-78
2024/03/16 00:38:27;;;;;;;1.40;0.22;;;;;;;;;;7410660;19;19910;-78
2024/03/16 00:41:12;;;;;;;1.10;0.47;;;;;;;;;;7409320;19;20357;-79
2024/03/16 00:43:58;;;;;;;3.35;0.70;;;;;;;;;;7411298;19;20594;-79
2024/03/16 00:46:42;;;;;;;0.82;0.30;;;;;;;;;;7408429;19;19915;-78
2024/03/16 00:49:29;;;;;;;0.57;0.40;;;;;;;;;;7408679;19;20338;-78
2024/03/16 00:52:18;;;;;;;1.08;0.77;;;;;;;;;;7410240;19;19929;-77
2024/03/16 00:55:09;;;;;;;1.25;0.47;;;;;;;;;;7410409;19;19925;-78
2024/03/16 00:57:56;;;;;;;0.43;0.30;;;;;;;;;;7410623;19;19918;-79
2024/03/16 01:00:40;;;;;;;1.42;0.50;;;;;;;;;;7418306;19;19922;-80
2024/03/16 01:03:24;;;;;;;0.80;0.30;;;;;;;;;;7417895;19;19974;-80
2024/03/16 01:06:09;;;;;;;0.38;0.30;;;;;;;;;;7415049;19;20269;-80
2024/03/16 01:08:55;;;;;;;0.75;0.47;;;;;;;;;;7412622;19;20274;-79
2024/03/16 01:11:45;;;;;;;0.40;0.30;;;;;;;;;;7413324;19;20012;-79
2024/03/16 01:14:34;;;;;;;0.63;0.40;;;;;;;;;;7416107;19;19923;-80
2024/03/16 01:17:19;;;;;;;0.22;0.20;;;;;;;;;;7412058;19;20330;-80
2024/03/16 01:20:05;;;;;;;2.28;0.30;;;;;;;;;;7413814;19;19921;-80
2024/03/16 01:22:49;;;;;;;3.75;0.52;;;;;;;;;;7411288;19;19929;-80
2024/03/16 01:25:38;;;;;;;1.83;0.40;;;;;;;;;;7415094;19;20274;-80
2024/03/16 01:28:30;;;;;;;0.30;0.20;;;;;;;;;;7413460;19;19946;-80
2024/03/16 01:31:14;;;;;;;1.45;0.45;;;;;;;;;;7415504;19;19942;-80
2024/03/16 01:34:03;;;;;;;1.40;0.50;;;;;;;;;;7416136;19;19922;-80
2024/03/16 01:36:50;;;;;;;0.65;0.35;;;;;;;;;;7413023;19;19931;-80
2024/03/16 01:39:34;;;;;;;0.30;0.30;;;;;;;;;;7415083;19;19915;-80
2024/03/16 01:42:18;;;;;;;1.95;0.35;;;;;;;;;;7416560;19;19925;-80
2024/03/16 01:45:15;;;;;;;2.50;0.50;;;;;;;;;;7414684;19;19929;-79
2024/03/16 01:47:59;;;;;;;0.40;0.30;;;;;;;;;;7410199;19;20029;-80
2024/03/16 01:50:45;;;;;;;0.88;0.43;;;;;;;;;;7410510;19;19930;-79
2024/03/16 01:53:32;;;;;;;0.82;0.47;;;;;;;;;;7415893;19;19914;-79
2024/03/16 01:56:17;;;;;;;1.88;0.40;;;;;;;;;;7415160;19;20337;-79
2024/03/16 01:59:01;;;;;;;1.30;0.40;;;;;;;;;;7412506;19;19966;-79
2024/03/16 02:01:48;;;;;;;1.65;0.32;;;;;;;;;;7414908;19;19914;-80
2024/03/16 02:04:37;;;;;;;2.13;0.55;;;;;;;;;;7412401;19;19925;-79
2024/03/16 02:07:21;;;;;;;1.02;0.50;;;;;;;;;;7415763;19;19915;-79
2024/03/16 02:10:08;;;;;;;0.38;0.38;;;;;;;;;;7408256;19;20246;-79
2024/03/16 02:12:57;;;;;;;2.28;0.40;;;;;;;;;;7409474;19;20267;-79
2024/03/16 02:15:44;;;;;;;2.70;0.40;;;;;;;;;;7406296;19;20335;-80
2024/03/16 02:18:30;;;;;;;3.60;0.28;;;;;;;;;;7409476;19;19945;-79
2024/03/16 02:21:17;;;;;;;1.33;0.50;;;;;;;;;;7410103;19;19981;-79
2024/03/16 02:24:04;;;;;;;2.45;0.60;;;;;;;;;;7412505;19;19918;-79
2024/03/16 02:26:48;;;;;;;0.88;0.50;;;;;;;;;;7409955;19;20254;-79
2024/03/16 02:29:35;;;;;;;1.83;0.40;;;;;;;;;;7413385;19;19923;-79
2024/03/16 02:32:19;;;;;;;0.68;0.40;;;;;;;;;;7411406;19;19914;-79
2024/03/16 02:35:09;;;;;;;1.05;0.45;;;;;;;;;;7413613;19;20265;-79
2024/03/16 02:37:56;;;;;;;3.15;0.60;;;;;;;;;;7412260;19;19933;-79
2024/03/16 02:40:43;;;;;;;1.00;0.55;;;;;;;;;;7411480;19;20384;-79
2024/03/16 02:43:30;;;;;;;2.80;0.90;;;;;;;;;;7413493;19;19944;-79
2024/03/16 02:46:17;;;;;;;2.13;0.55;;;;;;;;;;7411598;19;19922;-79
2024/03/16 02:49:04;;;;;;;1.23;0.50;;;;;;;;;;7411612;19;19933;-80
2024/03/16 02:51:51;;;;;;;3.80;0.60;;;;;;;;;;7414237;19;19938;-80
2024/03/16 02:54:38;;;;;;;1.85;0.63;;;;;;;;;;7413427;19;19922;-79
2024/03/16 02:57:25;;;;;;;2.42;0.60;;;;;;;;;;7411961;19;19917;-79
2024/03/16 03:00:13;;;;;;;0.77;0.60;;;;;;;;;;7415276;19;19978;-80
2024/03/16 03:03:03;;;;;;;0.65;0.45;;;;;;;;;;7411052;19;19922;-80
2024/03/16 03:05:49;;;;;;;1.50;0.73;;;;;;;;;;7411269;19;19925;-79
2024/03/16 03:08:33;;;;;;;0.88;0.60;;;;;;;;;;7411131;19;19948;-80
2024/03/16 03:11:22;;;;;;;1.13;0.57;;;;;;;;;;7411724;19;19923;-80
2024/03/16 03:14:15;;;;;;;1.08;0.60;;;;;;;;;;7411767;19;19932;-80
2024/03/16 03:17:01;;;;;;;1.20;0.52;;;;;;;;;;7413483;19;20330;-80
2024/03/16 03:19:46;;;;;;;0.47;0.43;;;;;;;;;;7418758;19;19911;-79
2024/03/16 03:22:32;;;;;;;2.60;0.70;;;;;;;;;;7425026;19;19949;-79
2024/03/16 03:25:21;;;;;;;1.92;0.70;;;;;;;;;;7425346;19;19968;-79
2024/03/16 03:28:08;;;;;;;1.17;0.50;;;;;;;;;;7427703;19;19911;-80
2024/03/16 03:30:55;;;;;;;0.73;0.40;;;;;;;;;;7429219;19;19947;-79
2024/03/16 03:33:41;;;;;;;0.68;0.55;;;;;;;;;;7431174;19;19926;-79
2024/03/16 03:36:28;;;;;;;1.40;0.50;;;;;;;;;;7419968;19;19918;-79
2024/03/16 03:39:16;;;;;;;1.15;0.60;;;;;;;;;;7413914;19;19923;-80
2024/03/16 03:42:04;;;;;;;1.10;0.45;;;;;;;;;;7413235;19;19914;-80
2024/03/16 03:45:00;;;;;;;1.20;0.65;;;;;;;;;;7414077;19;19955;-79
2024/03/16 03:48:00;;;;;;;0.93;0.50;;;;;;;;;;7410364;19;19907;-79
2024/03/16 03:50:47;;;;;;;1.52;0.55;;;;;;;;;;7411034;19;19936;-79
2024/03/16 03:53:33;;;;;;;1.60;0.60;;;;;;;;;;7413964;19;20396;-79
2024/03/16 03:56:18;;;;;;;3.00;0.45;;;;;;;;;;7411041;19;19929;-80
2024/03/16 03:59:05;;;;;;;2.55;0.63;;;;;;;;;;7413592;19;19914;-79
2024/03/16 04:01:52;;;;;;;1.42;0.60;;;;;;;;;;7412105;19;19973;-80
2024/03/16 04:04:40;;;;;;;1.15;0.70;;;;;;;;;;7412816;19;19914;-79
2024/03/16 04:07:24;;;;;;;1.67;0.70;;;;;;;;;;7408597;19;19954;-79
2024/03/16 04:10:11;;;;;;;6.70;0.90;;;;;;;;;;7410041;19;19926;-79
2024/03/16 04:12:55;;;;;;;4.63;0.90;;;;;;;;;;7411858;19;20014;-79
2024/03/16 04:15:40;;;;;;;3.63;0.90;;;;;;;;;;7412278;19;19930;-80
2024/03/16 04:18:29;;;;;;;0.80;0.50;;;;;;;;;;7407708;19;19925;-79
2024/03/16 04:21:15;;;;;;;1.63;0.93;;;;;;;;;;7412196;19;19977;-80
2024/03/16 04:24:02;;;;;;;1.60;0.80;;;;;;;;;;7419376;19;19942;-80
2024/03/16 04:26:47;;;;;;;4.45;0.98;;;;;;;;;;7416155;19;19918;-80
2024/03/16 04:29:32;;;;;;;3.47;0.93;;;;;;;;;;7414403;19;19944;-79
2024/03/16 04:32:17;;;;;;;1.55;0.80;;;;;;;;;;7437187;19;19915;-79
2024/03/16 04:35:07;;;;;;;2.20;1.00;;;;;;;;;;7443919;19;19911;-79
2024/03/16 04:37:54;;;;;;;1.08;0.80;;;;;;;;;;7417187;19;19931;-80
2024/03/16 04:40:42;;;;;;;1.08;0.80;;;;;;;;;;7421070;19;19914;-80
2024/03/16 04:43:27;;;;;;;1.88;0.95;;;;;;;;;;7418758;19;19911;-80
2024/03/16 04:46:11;;;;;;;2.22;1.13;;;;;;;;;;7418204;19;19924;-80
2024/03/16 04:48:55;;;;;;;2.22;1.00;;;;;;;;;;7416870;19;19911;-79
2024/03/16 04:51:45;;;;;;;1.23;0.98;;;;;;;;;;7420846;19;20261;-80
2024/03/16 04:54:32;;;;;;;2.55;1.23;;;;;;;;;;7418202;19;19915;-80
2024/03/16 04:57:18;;;;;;;1.88;1.10;;;;;;;;;;7411441;19;19910;-80
2024/03/16 05:00:02;;;;;;;2.17;1.30;;;;;;;;;;7413277;19;19911;-79
2024/03/16 05:02:49;;;;;;;5.93;1.23;;;;;;;;;;7417913;19;19930;-79
2024/03/16 05:05:34;;;;;;;2.15;1.00;;;;;;;;;;7420489;19;19914;-80
2024/03/16 05:08:23;;;;;;;1.60;0.95;;;;;;;;;;7415958;19;20258;-79
2024/03/16 05:11:10;;;;;;;;;;;;;;;;;;7419270;19;20321;-80
2024/03/16 05:13:57;;;;;;;0.75;0.50;;;;;;;;;;7418158;19;19926;-80
2024/03/16 05:16:44;;;;;;;1.70;0.90;;;;;;;;;;7417451;19;19937;-79
2024/03/16 05:19:33;;;;;;;1.58;1.00;;;;;;;;;;7417796;19;19915;-79
2024/03/16 05:22:19;;;;;;;1.70;0.75;;;;;;;;;;7413715;19;19922;-79
2024/03/16 05:25:07;;;;;;;0.98;0.60;;;;;;;;;;7414375;19;19917;-79
2024/03/16 05:27:52;;;;;;;1.58;0.80;;;;;;;;;;7421235;19;20015;-80
2024/03/16 05:30:37;;;;;;;3.22;0.70;;;;;;;;;;7436018;19;19918;-80
2024/03/16 05:33:23;;;;;;;1.95;0.65;;;;;;;;;;7434497;19;19919;-80
2024/03/16 05:36:12;;;;;;;1.95;0.65;;;;;;;;;;7439235;19;19922;-80
2024/03/16 05:38:56;;;;;;;1.40;0.70;;;;;;;;;;7426759;19;19990;-80
2024/03/16 05:41:48;;;;;;;2.58;0.70;;;;;;;;;;7417295;19;20284;-80
2024/03/16 05:44:35;;;;;;;4.88;0.90;;;;;;;;;;7416399;19;19925;-80
2024/03/16 05:47:21;;;;;;;2.33;1.27;;;;;;;;;;7413921;19;20333;-79
2024/03/16 05:50:08;;;;;;;1.27;0.90;;;;;;;;;;7415122;19;20309;-80
2024/03/16 05:52:52;;;;;;;3.97;1.52;;;;;;;;;;7419390;19;19926;-80
2024/03/16 05:55:37;;;;;;;4.63;1.75;;;;;;;;;;7416096;19;20327;-80
2024/03/16 05:58:26;;;;;;;2.58;1.30;;;;;;;;;;7414496;19;19907;-79
2024/03/16 06:01:12;;;;;;;3.40;1.50;;;;;;;;;;7415185;19;19925;-81
2024/03/16 06:03:57;;;;;;;1.75;1.30;;;;;;;;;;7418228;19;20289;-80
2024/03/16 06:06:46;;;;;;;2.83;1.55;;;;;;;;;;7419213;19;20262;-80
2024/03/16 06:09:30;;;;;;;2.92;1.23;;;;;;;;;;7415972;19;19918;-80
2024/03/16 06:12:15;;;;;;;3.78;1.50;;;;;;;;;;7419200;19;19910;-81
2024/03/16 06:15:05;;;;;;;1.48;1.08;;;;;;;;;;7417698;19;19922;-80
2024/03/16 06:17:52;;;;;;;1.73;1.48;;;;;;;;;;7416315;19;19914;-79
2024/03/16 06:20:37;;;;;;;3.45;1.50;;;;;;;;;;7416329;19;19955;-80
2024/03/16 06:23:24;;;;;;;2.58;1.83;;;;;;;;;;7418530;19;20544;-81
2024/03/16 06:26:16;;;;;;;2.85;1.75;;;;;;;;;;7415680;19;19931;-80
2024/03/16 06:29:05;;;;;;;3.72;1.65;;;;;;;;;;7418347;19;19915;-80
2024/03/16 06:32:04;;;;;;;4.15;1.70;;;;;;;;;;7417772;19;19931;-81
2024/03/16 06:34:50;;;;;;;3.42;1.80;;;;;;;;;;7419606;19;19907;-80
2024/03/16 06:37:37;;;;;;;3.53;1.50;;;;;;;;;;7415302;19;19915;-80
2024/03/16 06:40:24;;;;;;;2.03;1.42;;;;;;;;;;7417471;19;19919;-80
2024/03/16 06:43:13;;;;;;;2.80;1.58;;;;;;;;;;7415700;19;19978;-80
2024/03/16 06:46:00;;;;;;;1.75;1.40;;;;;;;;;;7415498;19;19938;-80
2024/03/16 06:48:49;;;;;;;2.63;1.58;;;;;;;;;;7416037;19;19922;-80
2024/03/16 06:51:34;;;;;;;3.05;1.13;;;;;;;;;;7435736;19;19910;-79
2024/03/16 06:54:18;;;;;;;1.30;1.10;;;;;;;;;;7440702;19;19925;-80
2024/03/16 06:57:05;;;;;;;2.28;1.10;;;;;;;;;;7414756;19;19910;-80
2024/03/16 06:59:51;;;;;;;3.40;1.15;;;;;;;;;;7418053;19;19915;-80
2024/03/16 07:02:35;;;;;;;1.95;1.00;;;;;;;;;;7419653;19;19944;-80
2024/03/16 07:05:22;;;;;;;2.83;0.98;;;;;;;;;;7417247;19;19918;-79
2024/03/16 07:08:09;;;;;;;2.50;0.93;;;;;;;;;;7415005;19;19918;-80
2024/03/16 07:10:56;;;;;;;1.83;0.85;;;;;;;;;;7415505;19;19914;-80
2024/03/16 07:13:43;;;;;;;1.38;0.80;;;;;;;;;;7417459;19;19943;-80
2024/03/16 07:16:27;;;;;;;0.80;0.52;;;;;;;;;;7413964;19;20482;-79
2024/03/16 07:19:16;;;;;;;2.55;0.80;;;;;;;;;;7416970;19;19919;-80
2024/03/16 07:22:08;;;;;;;1.08;0.50;;;;;;;;;;7418162;19;20325;-80
2024/03/16 07:24:57;;;;;;;3.47;0.70;;;;;;;;;;7416135;19;19915;-80
2024/03/16 07:27:46;;;;;;;2.40;0.68;;;;;;;;;;7416201;19;19918;-80
2024/03/16 07:30:34;;;;;;;3.75;1.05;;;;;;;;;;7414511;19;19915;-81
2024/03/16 07:33:19;;;;;;;1.33;0.80;;;;;;;;;;7416778;19;19929;-80
2024/03/16 07:36:06;;;;;;;1.60;0.70;;;;;;;;;;7418485;19;19915;-80
2024/03/16 07:38:56;;;;;;;1.50;0.90;;;;;;;;;;7418000;19;19910;-79
2024/03/16 07:41:43;;;;;;;2.25;1.00;;;;;;;;;;7416310;19;19929;-80
2024/03/16 07:44:34;;;;;;;1.15;0.77;;;;;;;;;;7416915;19;20390;-80
2024/03/16 07:47:22;;;;;;;1.88;0.77;;;;;;;;;;7416366;19;19970;-80
2024/03/16 07:50:10;;;;;;;2.00;0.80;;;;;;;;;;7417533;19;19934;-79
2024/03/16 07:53:03;;;;;;;1.83;0.90;;;;;;;;;;7420311;19;19907;-80
2024/03/16 07:55:52;;;;;;;4.18;1.35;;;;;;;;;;7418218;19;19988;-80
2024/03/16 07:58:37;;;;;;;;;;;;;;;;;;7421235;19;20327;-79
2024/03/16 08:01:24;;;;;;;2.10;0.90;;;;;;;;;;7420512;19;19922;-78
2024/03/16 08:04:08;;;;;;;4.03;1.00;;;;;;;;;;7410557;19;19919;-78
2024/03/16 08:06:52;;;;;;;2.17;1.00;;;;;;;;;;7402377;19;20354;-78
2024/03/16 08:09:41;;;;;;;4.18;1.10;;;;;;;;;;7412997;19;19918;-78
2024/03/16 08:12:31;;;;;;;3.17;1.70;;;;;;;;;;7409529;19;19918;-79
2024/03/16 08:15:15;;;;;;;0.77;0.60;;;;;;;;;;7412570;19;19925;-78
2024/03/16 08:18:05;;;;;;;3.33;1.40;;;;;;;;;;7412982;19;19943;-78
2024/03/16 08:20:51;;;;;;;5.07;1.20;;;;;;;;;;7414120;19;20004;-78
2024/03/16 08:23:38;;;;;;;6.13;1.33;;;;;;;;;;7409487;19;19918;-78
2024/03/16 08:26:22;;;;;;;3.90;1.00;;;;;;;;;;7409861;19;19922;-78
2024/03/16 08:29:12;;;;;;;4.28;0.90;;;;;;;;;;7415090;19;19923;-78
2024/03/16 08:31:59;;;;;;;2.10;0.90;;;;;;;;;;7414029;19;19918;-78
2024/03/16 08:34:45;;;;;;;3.47;1.20;;;;;;;;;;7413295;19;19926;-78
2024/03/16 08:37:32;;;;;;;1.70;0.82;;;;;;;;;;7414414;19;20312;-78
2024/03/16 08:40:18;;;;;;;1.83;0.70;;;;;;;;;;7414457;19;19926;-78
2024/03/16 08:43:03;;;;;;;2.60;0.90;;;;;;;;;;7411616;19;19922;-78
2024/03/16 08:45:52;;;;;;;1.30;0.88;;;;;;;;;;7409419;19;19918;-78
2024/03/16 08:48:39;;;;;;;3.47;0.93;;;;;;;;;;7411921;19;19922;-79
2024/03/16 08:51:29;;;;;;;3.08;1.25;;;;;;;;;;7413343;19;19922;-80
2024/03/16 08:54:13;;;;;;;3.17;1.05;;;;;;;;;;7413866;19;20269;-78
2024/03/16 08:56:57;;;;;;;2.20;1.02;;;;;;;;;;7410104;19;20329;-77
2024/03/16 08:59:47;;;;;;;3.45;1.00;;;;;;;;;;7419140;19;20330;-82
2024/03/16 09:02:39;;;;;;;2.60;0.95;;;;;;;;;;7422219;19;19919;-83
2024/03/16 09:05:28;;;;;;;2.83;1.20;;;;;;;;;;7419608;19;19929;-82
2024/03/16 09:08:17;;;;;;;2.03;0.90;;;;;;;;;;7419212;19;20265;-81
2024/03/16 09:11:06;;;;;;;5.40;1.08;;;;;;;;;;7445131;19;19925;-83
2024/03/16 09:13:51;;;;;;;2.60;0.82;;;;;;;;;;7438684;19;19986;-82
2024/03/16 09:16:40;;;;;;;3.10;0.95;;;;;;;;;;7423906;19;19985;-82
2024/03/16 09:19:29;;;;;;;3.50;1.27;;;;;;;;;;7424102;19;20254;-82
2024/03/16 09:22:18;;;;;;;2.58;1.23;;;;;;;;;;7424162;19;19953;-81
2024/03/16 09:25:06;;;;;;;2.10;1.10;;;;;;;;;;7421239;19;20322;-81
2024/03/16 09:27:52;;;;;;;1.67;1.20;;;;;;;;;;7418598;19;19925;-82
2024/03/16 09:30:39;;;;;;;1.23;0.80;;;;;;;;;;7422828;19;19910;-82
2024/03/16 09:33:27;;;;;;;1.40;1.00;;;;;;;;;;7438648;19;19921;-82
2024/03/16 09:36:14;;;;;;;2.03;0.75;;;;;;;;;;7444339;19;19921;-82
2024/03/16 09:39:02;;;;;;;2.70;0.90;;;;;;;;;;7447539;19;19915;-82
2024/03/16 09:41:49;;;;;;;2.35;0.90;;;;;;;;;;7415303;19;19910;-82
2024/03/16 09:44:35;;;;;;;4.00;1.40;;;;;;;;;;7415707;19;19918;-82
2024/03/16 09:47:22;;;;;;;2.17;1.13;;;;;;;;;;7414457;19;19931;-82
2024/03/16 09:50:09;;;;;;;2.75;0.98;;;;;;;;;;7416510;19;19906;-84
2024/03/16 09:52:57;;;;;;;2.35;1.20;;;;;;;;;;7417159;19;19942;-82
2024/03/16 09:55:42;;;;;;;3.88;1.13;;;;;;;;;;7416980;19;19966;-82
2024/03/16 09:58:29;;;;;;;3.85;1.02;;;;;;;;;;7415147;19;19923;-82
2024/03/16 10:01:16;;;;;;;3.35;1.20;;;;;;;;;;7418977;19;19942;-82
2024/03/16 10:04:06;;;;;;;3.38;1.48;;;;;;;;;;7421518;19;19922;-82
2024/03/16 10:06:52;;;;;;;2.97;1.25;;;;;;;;;;7418150;19;19941;-82
2024/03/16 10:09:52;;;;;;;2.28;1.10;;;;;;;;;;7416685;19;20266;-83
2024/03/16 10:12:40;;;;;;;2.47;1.27;;;;;;;;;;7419845;19;19921;-82
2024/03/16 10:15:25;;;;;;;3.03;1.45;;;;;;;;;;7421630;19;19918;-82
2024/03/16 10:18:14;;;;;;;3.55;1.40;;;;;;;;;;7416101;19;19922;-82
2024/03/16 10:21:01;;;;;;;2.90;1.50;;;;;;;;;;7413626;19;19922;-83
2024/03/16 10:23:47;;;;;;;6.03;1.60;;;;;;;;;;7416746;19;19926;-82
2024/03/16 10:26:37;;;;;;;5.38;1.80;;;;;;;;;;7417778;19;19948;-82
2024/03/16 10:29:24;;;;;;;3.25;1.35;;;;;;;;;;7415925;19;19970;-81
2024/03/16 10:32:09;;;;;;;4.10;1.60;;;;;;;;;;7413707;19;19978;-82
2024/03/16 10:35:04;;;;;;;1.70;0.90;;;;;;;;;;7425522;19;19945;-82
2024/03/16 10:37:52;;;;;;;1.73;1.00;;;;;;;;;;7435574;19;19939;-83
2024/03/16 10:40:40;;;;;;;2.78;0.93;;;;;;;;;;7432824;19;19926;-82
2024/03/16 10:43:30;;;;;;;1.00;0.65;;;;;;;;;;7435465;19;19938;-82
2024/03/16 10:46:19;;;;;;;1.38;0.55;;;;;;;;;;7428962;19;19930;-83
2024/03/16 10:49:04;;;;;;;4.88;1.15;;;;;;;;;;7427830;19;19918;-83
2024/03/16 10:51:51;;;;;;;2.92;1.10;;;;;;;;;;7420606;19;19915;-81
2024/03/16 10:54:38;;;;;;;1.63;0.70;;;;;;;;;;7416854;19;19930;-82
2024/03/16 10:57:25;;;;;;;1.55;0.70;;;;;;;;;;7416309;19;19921;-82
2024/03/16 11:00:34;;;;;;;1.85;0.60;;;;;;;;;;7418843;19;19911;-82
2024/03/16 11:03:25;;;;;;;2.13;0.70;;;;;;;;;;7418400;19;20008;-82
2024/03/16 11:06:21;;;;;;;0.77;0.50;;;;;;;;;;7417954;19;19943;-82
2024/03/16 11:09:07;;;;;;;1.45;0.50;;;;;;;;;;7418481;19;19992;-82
2024/03/16 11:11:54;;;;;;;1.95;0.75;;;;;;;;;;7417801;19;19925;-82
2024/03/16 11:14:41;;;;;;;0.35;0.30;;;;;;;;;;7421806;19;19919;-83
2024/03/16 11:17:32;;;;;;;2.97;0.70;;;;;;;;;;7421038;19;20067;-82
2024/03/16 11:20:37;;;;;;;0.95;0.75;;;;;;;;;;7420179;19;20833;-82
2024/03/16 11:23:24;;;;;;;1.83;0.75;;;;;;;;;;7420091;19;19926;-82
2024/03/16 11:26:34;;;;;;;1.75;0.30;;;;;;;;;;7418164;19;20266;-82
2024/03/16 11:29:24;;;;;;;1.13;0.50;;;;;;;;;;7437493;19;19922;-82
2024/03/16 11:32:12;;;;;;;0.55;0.50;;;;;;;;;;7434075;19;19957;-81
2024/03/16 11:34:59;;;;;;;1.25;0.50;;;;;;;;;;7427273;19;19921;-82
2024/03/16 11:37:43;;;;;;;1.33;0.40;;;;;;;;;;7422974;19;19914;-82
2024/03/16 11:40:30;;;;;;;0.73;0.45;;;;;;;;;;7424426;19;19919;-83
2024/03/16 11:43:12;;;;;;;0.50;0.40;;;;;;;;;;7423610;19;19951;-82
2024/03/16 11:45:57;;;;;;;0.68;0.32;;;;;;;;;;7422936;19;20021;-83
2024/03/16 11:48:41;;;;;;;0.52;0.30;;;;;;;;;;7420747;19;19915;-82
2024/03/16 11:51:28;;;;;;;0.50;0.40;;;;;;;;;;7425865;19;19926;-82
2024/03/16 11:54:12;;;;;;;1.15;0.40;;;;;;;;;;7423242;19;19926;-82
2024/03/16 11:56:59;;;;;;;1.58;0.40;;;;;;;;;;7424129;19;19926;-82
2024/03/16 11:59:45;;;;;;;2.08;0.50;;;;;;;;;;7423304;19;19918;-83
2024/03/16 12:02:32;;;;;;;1.25;0.63;;;;;;;;;;7425800;19;19918;-83
2024/03/16 12:05:16;;;;;;;1.02;0.40;;;;;;;;;;7423113;19;19910;-84
2024/03/16 12:08:06;;;;;;;0.82;0.40;;;;;;;;;;7419107;19;19914;-82
2024/03/16 12:10:53;;;;;;;1.23;0.40;;;;;;;;;;7422112;19;19927;-82
2024/03/16 12:13:37;;;;;;;0.57;0.38;;;;;;;;;;7422799;19;19903;-82
2024/03/16 12:16:23;;;;;;;0.60;0.50;;;;;;;;;;7419658;19;20339;-82
2024/03/16 12:19:10;;;;;;;0.55;0.40;;;;;;;;;;7422227;19;19918;-82
2024/03/16 12:21:57;;;;;;;0.32;0.20;;;;;;;;;;7424980;19;19919;-83
2024/03/16 12:24:45;;;;;;;0.63;0.43;;;;;;;;;;7424194;19;19914;-83
2024/03/16 12:27:32;;;;;;;1.92;0.38;;;;;;;;;;7419431;19;19918;-82
2024/03/16 12:30:16;;;;;;;0.50;0.30;;;;;;;;;;7424465;19;20035;-83
2024/03/16 12:33:01;;;;;;;0.30;0.30;;;;;;;;;;7420781;19;20249;-82
2024/03/16 12:35:45;;;;;;;0.47;0.22;;;;;;;;;;7424190;19;19947;-82
2024/03/16 12:38:33;;;;;;;0.82;0.32;;;;;;;;;;7421641;19;19915;-82
2024/03/16 12:41:20;;;;;;;0.30;0.30;;;;;;;;;;7421494;19;19914;-83
2024/03/16 12:44:05;;;;;;;1.05;0.43;;;;;;;;;;7421613;19;19915;-82
2024/03/16 12:46:49;;;;;;;0.28;0.20;;;;;;;;;;7420587;19;19910;-83
2024/03/16 12:49:36;;;;;;;0.60;0.60;;;;;;;;;;7420629;19;19942;-83
2024/03/16 12:52:23;;;;;;;1.75;0.32;;;;;;;;;;7418041;19;19932;-83
2024/03/16 12:55:11;;;;;;;1.63;0.50;;;;;;;;;;7421953;19;20404;-83
2024/03/16 12:57:56;;;;;;;0.70;0.32;;;;;;;;;;7415503;19;19925;-81
2024/03/16 13:00:42;;;;;;;0.50;0.30;;;;;;;;;;7416395;19;20326;-81
2024/03/16 13:03:26;;;;;;;0.57;0.30;;;;;;;;;;7415652;19;19919;-81
2024/03/16 13:06:11;;;;;;;1.10;0.20;;;;;;;;;;7414765;19;19918;-81
2024/03/16 13:08:53;;;;;;;0.50;0.30;;;;;;;;;;7412959;19;19930;-80
2024/03/16 13:11:38;;;;;;;0.40;0.20;;;;;;;;;;7413786;19;19922;-81
2024/03/16 13:14:23;;;;;;;0.88;0.30;;;;;;;;;;7415838;19;20307;-81
2024/03/16 13:17:07;;;;;;;1.10;0.40;;;;;;;;;;7411276;19;19919;-81
2024/03/16 13:19:53;;;;;;;0.50;0.30;;;;;;;;;;7414472;19;19923;-81
2024/03/16 13:22:42;;;;;;;0.25;0.13;;;;;;;;;;7415116;19;19914;-81
2024/03/16 13:25:26;;;;;;;0.47;0.30;;;;;;;;;;7416519;19;19915;-81
2024/03/16 13:28:13;;;;;;;2.65;0.40;;;;;;;;;;7413091;19;20338;-81
2024/03/16 13:31:00;;;;;;;1.67;0.43;;;;;;;;;;7415689;19;19929;-81
2024/03/16 13:33:42;;;;;;;0.60;0.60;;;;;;;;;;7417031;19;19924;-81
2024/03/16 13:36:29;;;;;;;1.40;0.40;;;;;;;;;;7416323;19;19914;-81
2024/03/16 13:39:13;;;;;;;0.70;0.40;;;;;;;;;;7414825;19;19923;-81
2024/03/16 13:41:57;;;;;;;1.27;0.52;;;;;;;;;;7416944;19;20005;-81
2024/03/16 13:44:43;;;;;;;1.00;0.50;;;;;;;;;;7415077;19;19967;-81
2024/03/16 13:47:32;;;;;;;0.95;0.70;;;;;;;;;;7412996;19;19919;-81
2024/03/16 13:50:16;;;;;;;0.70;0.52;;;;;;;;;;7413817;19;19978;-81
2024/03/16 13:53:03;;;;;;;1.02;0.70;;;;;;;;;;7414882;19;19923;-81
2024/03/16 13:55:48;;;;;;;3.60;0.95;;;;;;;;;;7413206;19;19914;-81
2024/03/16 13:58:34;;;;;;;2.40;1.05;;;;;;;;;;7414252;19;19918;-80
2024/03/16 14:01:20;;;;;;;1.00;0.80;;;;;;;;;;7414251;19;19996;-80
2024/03/16 14:04:09;;;;;;;1.52;0.80;;;;;;;;;;7416474;19;20358;-80
2024/03/16 14:06:55;;;;;;;2.33;1.10;;;;;;;;;;7413585;19;19921;-81
2024/03/16 14:09:41;;;;;;;2.95;1.10;;;;;;;;;;7416880;19;19918;-81
2024/03/16 14:12:28;;;;;;;1.90;1.10;;;;;;;;;;7415135;19;19922;-81
2024/03/16 14:15:14;;;;;;;2.05;1.00;;;;;;;;;;7413693;19;19925;-81
2024/03/16 14:18:01;;;;;;;2.25;1.27;;;;;;;;;;7412494;19;20361;-81
2024/03/16 14:20:49;;;;;;;2.78;1.10;;;;;;;;;;7417204;19;19907;-81
2024/03/16 14:23:31;;;;;;;1.75;1.00;;;;;;;;;;7415283;19;20341;-81
2024/03/16 14:26:18;;;;;;;1.77;0.98;;;;;;;;;;7413398;19;20325;-81
2024/03/16 14:29:02;;;;;;;1.52;0.90;;;;;;;;;;7417094;19;19915;-81
2024/03/16 14:31:48;;;;;;;1.58;0.82;;;;;;;;;;7424407;19;19946;-81
2024/03/16 14:34:32;;;;;;;2.45;1.25;;;;;;;;;;7417697;19;19915;-81
2024/03/16 14:37:21;;;;;;;11.77;1.60;;;;;;;;;;7414454;19;19915;-81
2024/03/16 14:40:09;;;;;;;2.40;1.25;;;;;;;;;;7414222;19;19925;-81
2024/03/16 14:42:58;;;;;;;1.77;1.30;;;;;;;;;;7411680;19;19926;-81
2024/03/16 14:45:43;;;;;;;2.80;1.27;;;;;;;;;;7414418;19;19919;-81
2024/03/16 14:48:25;;;;;;;2.75;1.40;;;;;;;;;;7412571;19;19911;-81
2024/03/16 14:51:09;;;;;;;1.65;1.20;;;;;;;;;;7414020;19;19925;-81
2024/03/16 14:53:55;;;;;;;2.10;1.50;;;;;;;;;;7414830;19;19922;-81
2024/03/16 14:56:40;;;;;;;1.75;1.20;;;;;;;;;;7413828;19;19922;-81
2024/03/16 14:59:21;;;;;;;2.80;1.30;;;;;;;;;;7413649;19;19910;-81
2024/03/16 15:02:09;;;;;;;1.80;1.10;;;;;;;;;;7413667;19;19918;-81
2024/03/16 15:04:51;;;;;;;1.63;1.00;;;;;;;;;;7410546;19;20330;-81
2024/03/16 15:07:40;;;;;;;2.80;1.10;;;;;;;;;;7410641;19;19970;-80
2024/03/16 15:10:26;;;;;;;1.50;1.00;;;;;;;;;;7412133;19;19931;-80
2024/03/16 15:13:10;;;;;;;2.22;1.13;;;;;;;;;;7409587;19;20346;-81
2024/03/16 15:15:52;;;;;;;1.45;1.02;;;;;;;;;;7413288;19;20357;-81
2024/03/16 15:18:36;;;;;;;2.15;1.13;;;;;;;;;;7411654;19;20303;-80
2024/03/16 15:21:20;;;;;;;2.78;1.00;;;;;;;;;;7412796;19;19906;-80
2024/03/16 15:24:07;;;;;;;2.78;1.33;;;;;;;;;;7411282;19;19915;-80
2024/03/16 15:27:06;;;;;;;1.13;1.00;;;;;;;;;;7412093;19;19911;-81
2024/03/16 15:29:53;;;;;;;1.60;1.02;;;;;;;;;;7414467;19;19914;-81
2024/03/16 15:32:35;;;;;;;1.48;1.20;;;;;;;;;;7412351;19;19914;-81
2024/03/16 15:35:19;;;;;;;3.45;1.20;;;;;;;;;;7413062;19;20369;-81
2024/03/16 15:38:01;;;;;;;1.88;1.15;;;;;;;;;;7409561;19;19917;-81
2024/03/16 15:40:47;;;;;;;2.58;1.02;;;;;;;;;;7414565;19;19947;-81
2024/03/16 15:43:34;;;;;;;3.55;1.15;;;;;;;;;;7412238;19;19923;-81
2024/03/16 15:46:16;;;;;;;2.47;0.90;;;;;;;;;;7407783;19;19939;-81
2024/03/16 15:49:03;;;;;;;2.35;1.13;;;;;;;;;;7410416;19;20405;-80
2024/03/16 15:51:45;;;;;;;2.30;1.40;;;;;;;;;;7411463;19;19919;-81
2024/03/16 15:54:33;;;;;;;2.22;1.20;;;;;;;;;;7415562;19;19986;-81
2024/03/16 15:57:17;;;;;;;1.70;1.10;;;;;;;;;;7407299;19;19927;-81
2024/03/16 16:00:09;;;;;;;2.47;0.85;;;;;;;;;;7410041;19;19978;-81
2024/03/16 16:02:53;;;;;;;1.25;0.82;;;;;;;;;;7411745;19;20266;-80
2024/03/16 16:05:41;;;;;;;2.22;1.02;;;;;;;;;;7409273;19;19906;-80
2024/03/16 16:08:27;;;;;;;1.50;1.08;;;;;;;;;;7404738;19;19921;-80
2024/03/16 16:11:14;;;;;;;3.50;0.93;;;;;;;;;;7407158;19;19918;-80
2024/03/16 16:13:58;;;;;;;2.50;1.10;;;;;;;;;;7408554;19;19913;-81
2024/03/16 16:16:50;;;;;;;1.13;0.85;;;;;;;;;;7404305;19;19918;-81
2024/03/16 16:19:36;;;;;;;8.43;1.55;;;;;;;;;;7413028;19;19929;-81
2024/03/16 16:22:18;;;;;;;1.60;1.17;;;;;;;;;;7415087;19;19928;-81
2024/03/16 16:25:04;;;;;;;2.80;1.08;;;;;;;;;;7413647;19;19913;-81
2024/03/16 16:27:48;;;;;;;1.92;1.10;;;;;;;;;;7414118;19;19907;-81
2024/03/16 16:30:32;;;;;;;2.50;1.05;;;;;;;;;;7417189;19;20325;-81
2024/03/16 16:33:20;;;;;;;1.50;0.88;;;;;;;;;;7416070;19;19943;-81
2024/03/16 16:36:07;;;;;;;1.10;0.90;;;;;;;;;;7413879;19;19927;-81
2024/03/16 16:38:51;;;;;;;1.98;1.08;;;;;;;;;;7418298;19;19906;-81
2024/03/16 16:41:38;;;;;;;2.65;1.25;;;;;;;;;;7416429;19;19922;-81